Time;durP1;ratioP1;P1;durP2;ratioP2;P2;SDS_P1;SDS_P2;PMS_P1;PMS_P2;Temp;Humidity;BMP_temperature;BMP_pressure;BME280_temperature;BME280_humidity;BME280_pressure;Samples;Min_cycle;Max_cycle;Signal;HPM_P1;HPM_P2
2021/01/15 00:00:22;;;;;;;2.75;0.93;;;;;;;25.60;37.10;98273.31;4950651;28;20326;-72
2021/01/15 00:02:48;;;;;;;2.60;0.82;;;;;;;25.58;36.49;98274.50;4952937;28;20218;-69
2021/01/15 00:05:14;;;;;;;1.35;0.80;;;;;;;25.55;37.00;98272.22;4951914;28;20210;-72
2021/01/15 00:07:40;;;;;;;1.63;0.73;;;;;;;25.51;37.58;98273.59;4950900;28;20377;-73
2021/01/15 00:10:07;;;;;;;1.95;0.68;;;;;;;25.52;37.30;98269.91;4951808;28;20230;-72
2021/01/15 00:12:33;;;;;;;3.83;1.20;;;;;;;25.48;37.53;98269.47;4950092;28;20285;-72
2021/01/15 00:14:59;;;;;;;1.27;0.77;;;;;;;25.51;37.53;98273.59;4948742;28;20245;-72
2021/01/15 00:17:33;;;;;;;4.47;0.90;;;;;;;25.47;37.09;98273.97;4951049;28;20619;-71
2021/01/15 00:19:59;;;;;;;3.50;0.80;;;;;;;25.45;37.75;98275.16;4951507;28;20231;-72
2021/01/15 00:22:25;;;;;;;2.85;1.30;;;;;;;25.39;37.57;98276.72;4952017;28;20217;-72
2021/01/15 00:24:51;;;;;;;1.88;0.90;;;;;;;25.36;37.64;98277.06;4951564;28;20713;-72
2021/01/15 00:27:17;;;;;;;1.95;1.00;;;;;;;25.38;37.70;98275.06;4952313;28;20211;-72
2021/01/15 00:29:43;;;;;;;2.25;1.05;;;;;;;25.45;37.67;98275.16;4950097;28;20293;-72
2021/01/15 00:32:09;;;;;;;3.88;0.90;;;;;;;25.39;37.37;98282.06;4951337;28;20234;-72
2021/01/15 00:34:37;;;;;;;3.75;0.80;;;;;;;25.42;36.87;98275.53;4951596;28;20238;-72
2021/01/15 00:37:03;;;;;;;1.48;0.80;;;;;;;25.34;37.63;98280.97;4951341;28;20214;-72
2021/01/15 00:39:29;;;;;;;4.68;1.02;;;;;;;25.33;37.55;98282.81;4951485;28;20309;-72
2021/01/15 00:41:55;;;;;;;6.30;0.65;;;;;;;25.30;37.19;98284.00;4951388;28;20214;-71
2021/01/15 00:44:22;;;;;;;3.08;0.98;;;;;;;25.25;37.52;98286.38;4951013;28;20221;-72
2021/01/15 00:46:53;;;;;;;2.58;0.82;;;;;;;25.25;37.81;98289.03;4951334;28;20215;-72
2021/01/15 00:49:19;;;;;;;1.73;0.85;;;;;;;25.18;37.53;98279.25;4950745;28;20227;-72
2021/01/15 00:51:51;;;;;;;4.32;0.93;;;;;;;25.14;38.18;98286.81;4950365;28;20237;-69
2021/01/15 00:54:18;;;;;;;4.70;1.10;;;;;;;25.14;37.75;98289.47;4952786;28;20206;-69
2021/01/15 00:56:44;;;;;;;3.33;0.98;;;;;;;25.11;37.70;98289.84;4950398;28;20238;-68
2021/01/15 00:59:11;;;;;;;3.55;0.88;;;;;;;25.17;37.22;98288.31;4953345;28;20303;-72
2021/01/15 01:01:38;;;;;;;1.67;0.80;;;;;;;25.23;37.71;98293.75;4954634;28;20203;-67
2021/01/15 01:04:05;;;;;;;3.67;0.90;;;;;;;25.21;37.27;98289.59;4954841;29;20292;-68
2021/01/15 01:06:32;;;;;;;2.53;1.05;;;;;;;25.19;36.88;98289.75;4954909;28;20207;-69
2021/01/15 01:09:02;;;;;;;1.90;0.80;;;;;;;25.22;37.58;98296.59;4954675;28;20673;-70
2021/01/15 01:11:30;;;;;;;2.72;0.70;;;;;;;25.22;37.19;98292.09;4955624;28;20309;-70
2021/01/15 01:13:57;;;;;;;0.80;0.60;;;;;;;25.18;37.77;98284.59;4955037;28;20215;-70
2021/01/15 01:16:25;;;;;;;2.60;0.77;;;;;;;25.18;36.75;98289.94;4954602;29;20263;-69
2021/01/15 01:18:51;;;;;;;1.30;0.75;;;;;;;25.16;37.86;98302.69;4954451;28;20603;-71
2021/01/15 01:21:17;;;;;;;3.55;1.00;;;;;;;25.15;37.65;98301.00;4955068;28;20249;-72
2021/01/15 01:23:44;;;;;;;1.88;0.82;;;;;;;25.16;36.63;98300.00;4953886;29;20226;-72
2021/01/15 01:26:11;;;;;;;2.80;0.85;;;;;;;25.14;37.85;98307.38;4955091;28;20211;-71
2021/01/15 01:28:38;;;;;;;1.27;0.70;;;;;;;25.09;36.81;98306.06;4954995;28;20298;-72
2021/01/15 01:31:04;;;;;;;2.00;0.60;;;;;;;25.12;37.80;98303.03;4953811;29;20350;-72
2021/01/15 01:33:30;;;;;;;2.65;0.80;;;;;;;25.13;36.84;98306.56;4953224;28;20225;-71
2021/01/15 01:35:56;;;;;;;2.08;0.93;;;;;;;25.06;37.73;98303.78;4954006;28;20230;-72
2021/01/15 01:38:23;;;;;;;2.28;1.00;;;;;;;25.03;37.73;98313.97;4954184;28;20626;-72
2021/01/15 01:40:49;;;;;;;1.80;0.70;;;;;;;25.07;37.39;98309.94;4953849;28;20219;-70
2021/01/15 01:43:16;;;;;;;1.25;0.60;;;;;;;25.04;37.26;98312.97;4952320;28;20671;-72
2021/01/15 01:45:42;;;;;;;3.72;0.90;;;;;;;25.04;36.80;98313.81;4954466;29;20213;-72
2021/01/15 01:48:09;;;;;;;2.00;0.90;;;;;;;25.05;37.58;98318.16;4953489;29;20262;-71
2021/01/15 01:50:36;;;;;;;2.80;0.80;;;;;;;25.04;36.85;98313.81;4953270;28;20289;-71
2021/01/15 01:53:04;;;;;;;2.08;0.80;;;;;;;24.99;36.95;98310.00;4955931;28;20194;-71
2021/01/15 01:55:31;;;;;;;1.95;0.65;;;;;;;25.00;37.48;98325.88;4952366;29;20297;-71
2021/01/15 01:57:58;;;;;;;1.38;0.70;;;;;;;25.01;37.42;98322.19;4953847;28;20575;-71
2021/01/15 02:00:25;;;;;;;1.23;0.70;;;;;;;25.01;36.80;98332.06;4954446;28;20223;-71
2021/01/15 02:02:51;;;;;;;3.30;0.90;;;;;;;24.98;37.94;98327.91;4953234;29;20209;-70
2021/01/15 02:05:17;;;;;;;1.75;0.82;;;;;;;24.98;37.28;98338.63;4952836;29;20623;-71
2021/01/15 02:07:43;;;;;;;4.03;0.90;;;;;;;24.98;37.50;98338.63;4951478;29;20206;-72
2021/01/15 02:10:15;;;;;;;1.38;0.63;;;;;;;24.96;36.70;98340.59;4952608;28;20273;-73
2021/01/15 02:12:50;;;;;;;4.07;0.75;;;;;;;24.95;37.57;98341.63;4936662;29;20580;-72
2021/01/15 02:15:21;;;;;;;2.17;0.75;;;;;;;24.93;37.29;98343.63;4939111;29;20326;-71
2021/01/15 02:17:54;;;;;;;1.08;0.70;;;;;;;24.92;37.86;98347.34;4935909;29;20298;-70
2021/01/15 02:20:45;;;;;;;3.40;0.90;;;;;;;24.94;36.52;98346.13;4935175;29;20228;-72
2021/01/15 02:23:13;;;;;;;2.47;0.90;;;;;;;24.95;37.64;98349.66;4932300;29;20203;-72
2021/01/15 02:26:18;;;;;;;1.65;0.70;;;;;;;24.94;37.73;98356.00;4953353;28;20214;-71
2021/01/15 02:29:20;;;;;;;3.47;0.70;;;;;;;24.94;37.32;98343.47;4953443;29;20234;-71
2021/01/15 02:32:17;;;;;;;2.50;0.80;;;;;;;25.01;36.75;98353.44;4954072;28;20693;-71
2021/01/15 02:34:59;;;;;;;1.13;0.57;;;;;;;25.05;37.67;98352.91;4954426;29;20203;-71
2021/01/15 02:37:37;;;;;;;7.28;1.05;;;;;;;25.04;37.73;98359.28;4954127;28;20214;-71
2021/01/15 02:40:10;;;;;;;2.83;0.70;;;;;;;25.08;37.16;98360.59;4954150;28;20237;-71
2021/01/15 02:42:38;;;;;;;1.27;0.60;;;;;;;25.11;37.29;98359.38;4954384;29;20631;-71
2021/01/15 02:45:08;;;;;;;2.05;0.70;;;;;;;25.11;37.10;98359.38;4953500;28;20290;-71
2021/01/15 02:47:46;;;;;;;2.15;0.70;;;;;;;25.10;36.44;98360.41;4954341;29;20214;-71
2021/01/15 02:50:13;;;;;;;3.35;0.80;;;;;;;25.12;36.98;98363.75;4954546;28;20562;-72
2021/01/15 02:52:41;;;;;;;1.65;0.65;;;;;;;25.08;36.41;98360.59;4951716;28;20213;-72
2021/01/15 02:55:08;;;;;;;1.35;0.60;;;;;;;25.05;37.41;98366.28;4954018;28;20670;-71
2021/01/15 02:57:34;;;;;;;1.25;0.60;;;;;;;25.08;36.75;98359.75;4952749;28;20215;-72
2021/01/15 03:00:01;;;;;;;2.17;0.80;;;;;;;25.04;36.46;98364.63;4953457;28;20241;-72
2021/01/15 03:02:35;;;;;;;1.80;0.55;;;;;;;25.07;37.33;98361.59;4952433;28;20214;-69
2021/01/15 03:05:06;;;;;;;2.45;0.80;;;;;;;25.06;36.94;98364.44;4953994;28;20580;-72
2021/01/15 03:07:32;;;;;;;1.17;0.55;;;;;;;25.11;36.80;98359.38;4952916;28;20559;-71
2021/01/15 03:10:02;;;;;;;2.58;0.70;;;;;;;25.07;36.59;98364.25;4952326;28;20246;-71
2021/01/15 03:12:29;;;;;;;1.55;0.73;;;;;;;25.11;37.04;98362.06;4953259;28;20531;-72
2021/01/15 03:14:56;;;;;;;3.08;0.40;;;;;;;25.06;36.56;98359.09;4951070;28;20206;-71
2021/01/15 03:17:26;;;;;;;0.88;0.68;;;;;;;25.12;35.96;98369.91;4951705;28;20235;-70
2021/01/15 03:19:53;;;;;;;5.30;0.70;;;;;;;25.12;35.99;98369.09;4951817;28;20326;-71
2021/01/15 03:22:20;;;;;;;1.88;0.60;;;;;;;25.14;36.75;98364.38;4950609;28;20229;-71
2021/01/15 03:24:52;;;;;;;1.90;0.63;;;;;;;25.16;36.34;98374.91;4950745;28;20207;-69
2021/01/15 03:27:19;;;;;;;1.92;0.77;;;;;;;25.11;36.20;98381.63;4953174;29;20527;-71
2021/01/15 03:29:46;;;;;;;4.55;0.70;;;;;;;25.06;36.00;98381.34;4951617;28;20226;-70
2021/01/15 03:32:12;;;;;;;1.15;0.60;;;;;;;25.07;36.79;98371.47;4951865;28;20203;-69
2021/01/15 03:34:38;;;;;;;1.65;0.63;;;;;;;25.04;36.17;98378.00;4952053;28;20218;-70
2021/01/15 03:37:05;;;;;;;1.33;0.68;;;;;;;25.01;36.21;98382.88;4952590;28;20235;-71
2021/01/15 03:39:32;;;;;;;0.68;0.50;;;;;;;25.01;36.31;98390.91;4952587;28;20273;-72
2021/01/15 03:41:58;;;;;;;2.13;0.98;;;;;;;25.01;36.48;98389.03;4951299;28;20206;-71
2021/01/15 03:44:24;;;;;;;1.90;0.73;;;;;;;24.96;36.53;98393.28;4951336;28;20214;-71
2021/01/15 03:46:53;;;;;;;2.25;0.98;;;;;;;24.93;36.76;98389.09;4951342;28;20218;-71
2021/01/15 03:49:19;;;;;;;2.28;0.50;;;;;;;24.91;36.99;98399.16;4952667;28;20230;-71
2021/01/15 03:51:45;;;;;;;1.08;0.68;;;;;;;24.91;36.21;98399.16;4952241;28;20210;-69
2021/01/15 03:54:11;;;;;;;2.20;0.50;;;;;;;24.90;36.57;98400.19;4951613;28;20646;-69
2021/01/15 03:56:38;;;;;;;0.60;0.50;;;;;;;24.89;36.49;98402.00;4951441;28;20226;-71
2021/01/15 03:59:04;;;;;;;1.98;0.80;;;;;;;24.88;36.58;98403.03;4951544;28;20236;-71
2021/01/15 04:01:31;;;;;;;1.13;0.68;;;;;;;24.85;36.15;98399.88;4950094;28;20225;-71
2021/01/15 04:03:57;;;;;;;1.17;0.50;;;;;;;24.85;36.22;98399.88;4950552;28;20210;-71
2021/01/15 04:06:24;;;;;;;0.70;0.60;;;;;;;24.81;36.67;98407.41;4951600;29;20206;-71
2021/01/15 04:08:50;;;;;;;1.52;0.70;;;;;;;24.83;35.94;98420.59;4951284;28;20254;-69
2021/01/15 04:11:16;;;;;;;1.60;0.60;;;;;;;24.75;36.28;98413.47;4951442;28;20213;-71
2021/01/15 04:13:43;;;;;;;0.60;0.50;;;;;;;24.78;36.25;98418.47;4950300;28;20677;-71
2021/01/15 04:16:13;;;;;;;3.15;0.70;;;;;;;24.85;36.38;98411.41;4950879;28;20245;-71
2021/01/15 04:18:39;;;;;;;1.00;0.40;;;;;;;24.90;37.25;98416.22;4951348;29;20206;-72
2021/01/15 04:21:05;;;;;;;2.22;0.80;;;;;;;24.89;37.07;98425.25;4953741;28;20654;-72
2021/01/15 04:23:31;;;;;;;1.98;0.90;;;;;;;24.92;36.70;98422.22;4951436;28;20207;-71
2021/01/15 04:25:57;;;;;;;1.58;0.63;;;;;;;24.95;36.73;98424.53;4950617;28;20225;-72
2021/01/15 04:28:23;;;;;;;3.08;0.52;;;;;;;24.93;36.80;98426.53;4951319;29;20298;-72
2021/01/15 04:30:50;;;;;;;1.45;0.80;;;;;;;24.89;37.04;98433.25;4951879;28;20280;-72
2021/01/15 04:33:16;;;;;;;3.47;0.80;;;;;;;24.89;36.86;98435.94;4953281;28;20297;-71
2021/01/15 04:35:43;;;;;;;1.35;0.73;;;;;;;24.92;36.90;98435.59;4954298;28;20230;-71
2021/01/15 04:38:09;;;;;;;2.13;0.52;;;;;;;24.94;36.94;98442.41;4954867;28;20753;-72
2021/01/15 04:40:35;;;;;;;2.08;0.75;;;;;;;24.92;36.91;98446.28;4953415;28;20226;-71
2021/01/15 04:43:01;;;;;;;1.58;0.80;;;;;;;24.96;36.60;98442.25;4954379;28;20497;-71
2021/01/15 04:45:28;;;;;;;1.77;0.60;;;;;;;25.00;36.57;98454.25;4954918;28;20341;-71
2021/01/15 04:47:55;;;;;;;1.17;0.70;;;;;;;25.15;35.99;98450.81;4954438;28;20523;-71
2021/01/15 04:50:22;;;;;;;1.67;0.50;;;;;;;25.16;35.83;98455.16;4954270;28;20238;-70
2021/01/15 04:52:49;;;;;;;1.20;0.63;;;;;;;25.23;36.36;98458.78;4954075;28;20228;-71
2021/01/15 04:55:21;;;;;;;2.03;0.70;;;;;;;25.26;36.30;98456.66;4954484;29;20197;-70
2021/01/15 04:57:49;;;;;;;0.90;0.50;;;;;;;25.32;35.92;98456.94;4955756;28;20203;-72
2021/01/15 05:00:18;;;;;;;0.73;0.52;;;;;;;25.38;35.97;98461.56;4955680;28;20241;-71
2021/01/15 05:02:46;;;;;;;1.95;0.50;;;;;;;25.41;36.51;98462.03;4956230;28;20214;-71
2021/01/15 05:05:19;;;;;;;1.75;0.70;;;;;;;25.42;35.60;98469.06;4953544;28;20207;-71
2021/01/15 05:08:02;;;;;;;0.95;0.50;;;;;;;25.46;36.05;98472.19;4955207;28;20616;-70
2021/01/15 05:10:29;;;;;;;0.75;0.60;;;;;;;25.44;36.48;98469.69;4955184;29;20348;-72
2021/01/15 05:12:56;;;;;;;1.20;0.57;;;;;;;25.48;35.54;98472.88;4954987;28;20298;-71
2021/01/15 05:15:25;;;;;;;1.55;0.60;;;;;;;25.58;35.59;98483.31;4955760;28;20403;-71
2021/01/15 05:17:52;;;;;;;3.50;0.50;;;;;;;25.57;36.05;98482.50;4955427;28;20577;-70
2021/01/15 05:20:22;;;;;;;1.60;0.50;;;;;;;25.56;35.89;98478.13;4970093;28;20233;-72
2021/01/15 05:22:48;;;;;;;3.30;0.57;;;;;;;25.57;35.80;98487.84;4955024;29;20283;-71
2021/01/15 05:25:14;;;;;;;1.30;0.60;;;;;;;25.60;35.62;98484.00;4953458;28;20655;-71
2021/01/15 05:27:43;;;;;;;0.77;0.55;;;;;;;25.61;35.58;98493.66;4954057;28;20226;-72
2021/01/15 05:30:17;;;;;;;3.70;0.70;;;;;;;25.60;36.24;98492.84;4953722;28;20238;-71
2021/01/15 05:32:44;;;;;;;0.98;0.50;;;;;;;25.63;36.19;98505.88;4954908;28;20221;-72
2021/01/15 05:35:11;;;;;;;2.47;0.63;;;;;;;25.61;36.19;98501.69;4954274;28;20198;-71
2021/01/15 05:37:38;;;;;;;2.88;0.60;;;;;;;25.59;36.33;98509.09;4954775;28;20297;-70
2021/01/15 05:40:05;;;;;;;0.70;0.40;;;;;;;25.62;36.01;98517.59;4954059;28;20227;-71
2021/01/15 05:42:45;;;;;;;1.20;0.50;;;;;;;25.65;35.62;98519.09;4953253;29;20217;-69
2021/01/15 05:45:16;;;;;;;2.05;0.55;;;;;;;25.66;35.76;98513.56;4954164;28;20206;-69
2021/01/15 05:47:43;;;;;;;1.65;0.70;;;;;;;25.70;35.89;98519.38;4955190;28;20214;-71
2021/01/15 05:50:10;;;;;;;0.95;0.55;;;;;;;25.71;35.39;98521.03;4953501;28;20258;-71
2021/01/15 05:52:38;;;;;;;0.90;0.52;;;;;;;25.66;35.67;98520.75;4953763;28;20269;-71
2021/01/15 05:55:11;;;;;;;2.78;0.65;;;;;;;25.67;35.40;98531.28;4952854;28;20218;-71
2021/01/15 05:57:40;;;;;;;2.58;0.50;;;;;;;25.72;35.35;98538.78;4954289;28;20297;-70
2021/01/15 06:00:07;;;;;;;1.23;0.55;;;;;;;25.77;34.95;98536.38;4953894;28;20245;-72
2021/01/15 06:02:34;;;;;;;0.80;0.57;;;;;;;25.72;35.25;98544.13;4952159;28;20213;-71
2021/01/15 06:05:03;;;;;;;0.75;0.55;;;;;;;25.70;35.52;98542.63;4952533;28;20253;-71
2021/01/15 06:07:30;;;;;;;1.48;0.50;;;;;;;25.75;34.57;98541.09;4953722;28;20299;-70
2021/01/15 06:10:01;;;;;;;0.82;0.40;;;;;;;25.75;34.70;98557.16;4952880;28;20385;-72
2021/01/15 06:12:42;;;;;;;1.85;0.50;;;;;;;25.76;35.16;98558.81;4953911;28;20210;-70
2021/01/15 06:15:09;;;;;;;1.27;0.60;;;;;;;25.74;34.52;98563.53;4953951;28;20298;-69
2021/01/15 06:17:39;;;;;;;1.25;0.70;;;;;;;25.79;34.88;98571.03;4953649;28;20313;-70
2021/01/15 06:20:07;;;;;;;0.90;0.65;;;;;;;25.80;34.48;98570.03;4952721;28;20720;-70
2021/01/15 06:22:36;;;;;;;1.38;0.80;;;;;;;25.82;33.95;98570.66;4952992;28;20199;-70
2021/01/15 06:25:16;;;;;;;4.60;1.05;;;;;;;25.81;34.85;98577.88;4953926;28;20221;-70
2021/01/15 06:27:43;;;;;;;3.15;0.90;;;;;;;25.81;35.06;98580.56;4956522;28;20206;-70
2021/01/15 06:30:14;;;;;;;22.75;1.73;;;;;;;25.76;35.20;98582.91;4957096;29;20226;-68
2021/01/15 06:32:41;;;;;;;27.95;3.05;;;;;;;25.77;36.11;98591.81;4953978;28;20199;-67
2021/01/15 06:35:22;;;;;;;21.73;2.47;;;;;;;25.72;36.78;98599.53;4954152;28;20524;-70
2021/01/15 06:37:58;;;;;;;25.33;2.42;;;;;;;25.73;36.12;98594.00;4957657;28;20206;-69
2021/01/15 06:40:31;;;;;;;17.73;2.10;;;;;;;25.78;36.75;98593.44;4958489;29;20735;-69
2021/01/15 06:42:58;;;;;;;20.38;2.30;;;;;;;25.81;36.39;98607.34;4954960;28;20306;-72
2021/01/15 06:45:24;;;;;;;11.93;2.50;;;;;;;25.83;36.62;98594.59;4958195;28;20218;-66
2021/01/15 06:47:54;;;;;;;10.02;2.03;;;;;;;25.76;36.05;98604.34;4957201;28;20290;-67
2021/01/15 06:50:21;;;;;;;15.25;1.65;;;;;;;25.82;35.12;98610.84;4955918;28;20231;-67
2021/01/15 06:52:49;;;;;;;5.32;1.30;;;;;;;25.73;35.80;98612.75;4953062;28;20282;-67
2021/01/15 06:55:17;;;;;;;18.75;2.70;;;;;;;25.65;35.94;98618.16;4951947;28;20293;-70
2021/01/15 06:57:50;;;;;;;18.60;1.65;;;;;;;25.55;36.17;98622.91;4952624;28;20203;-69
2021/01/15 07:00:22;;;;;;;19.48;1.73;;;;;;;25.54;35.75;98619.38;4952201;28;20309;-69
2021/01/15 07:03:27;;;;;;;15.20;1.83;;;;;;;25.46;36.86;98619.41;4954060;28;20194;-70
2021/01/15 07:05:56;;;;;;;10.52;2.50;;;;;;;25.41;36.81;98627.97;4898568;28;20677;-72
2021/01/15 07:08:24;;;;;;;7.47;1.70;;;;;;;25.43;36.91;98633.13;4953733;28;20297;-71
2021/01/15 07:10:51;;;;;;;9.50;1.55;;;;;;;25.51;36.05;98632.28;4952373;28;20265;-71
2021/01/15 07:13:27;;;;;;;8.75;2.50;;;;;;;25.63;36.84;98637.06;4953155;28;20603;-72
2021/01/15 07:15:55;;;;;;;15.20;1.88;;;;;;;25.67;37.35;98642.91;4953799;28;20297;-72
2021/01/15 07:18:33;;;;;;;12.13;1.70;;;;;;;25.73;35.78;98646.72;4953588;29;20234;-73
2021/01/15 07:21:07;;;;;;;7.43;1.90;;;;;;;25.72;35.91;98650.41;4953597;29;20730;-71
2021/01/15 07:23:52;;;;;;;10.98;1.92;;;;;;;25.77;36.33;98651.53;4952933;29;20221;-72
2021/01/15 07:26:19;;;;;;;12.02;2.17;;;;;;;25.72;35.61;98650.41;4952850;28;20191;-70
2021/01/15 07:28:47;;;;;;;8.95;1.85;;;;;;;25.74;35.21;98651.06;4952570;28;20598;-72
2021/01/15 07:31:23;;;;;;;12.02;1.52;;;;;;;25.75;35.86;98656.25;4953209;28;20214;-72
2021/01/15 07:33:56;;;;;;;12.95;1.83;;;;;;;25.78;35.36;98660.41;4953700;29;20305;-71
2021/01/15 07:36:32;;;;;;;7.82;1.33;;;;;;;25.70;35.37;98652.41;4953280;28;20230;-70
2021/01/15 07:39:10;;;;;;;7.43;1.67;;;;;;;25.70;35.25;98666.66;4952709;29;20226;-72
2021/01/15 07:41:44;;;;;;;6.70;1.35;;;;;;;25.62;34.64;98666.69;4953076;29;20292;-72
2021/01/15 07:44:39;;;;;;;10.60;1.90;;;;;;;25.57;34.07;98671.75;4952582;28;20238;-71
2021/01/15 07:47:12;;;;;;;6.93;1.50;;;;;;;25.54;34.89;98669.41;4951583;28;20218;-70
2021/01/15 07:49:46;;;;;;;10.55;1.85;;;;;;;25.69;34.34;98673.00;4953218;28;20261;-71
2021/01/15 07:52:12;;;;;;;5.28;1.90;;;;;;;25.64;32.53;98670.84;4952886;29;20290;-71
2021/01/15 07:55:00;;;;;;;5.13;1.42;;;;;;;25.55;33.48;98682.63;4952358;29;20720;-71
2021/01/15 07:57:27;;;;;;;3.35;1.23;;;;;;;25.56;34.49;98689.63;4944024;29;20215;-71
2021/01/15 07:59:54;;;;;;;3.03;1.20;;;;;;;25.76;33.66;98684.69;4951365;28;20305;-71
2021/01/15 08:02:21;;;;;;;8.05;1.63;;;;;;;25.77;34.26;98691.72;4951844;28;20203;-70
2021/01/15 08:04:48;;;;;;;8.35;1.75;;;;;;;25.76;33.94;98694.56;4951279;28;20217;-70
2021/01/15 08:07:23;;;;;;;11.32;2.13;;;;;;;25.88;34.61;98697.69;4951570;28;20203;-72
2021/01/15 08:09:49;;;;;;;5.55;1.60;;;;;;;25.92;33.95;98704.38;4953015;28;20320;-71
2021/01/15 08:12:15;;;;;;;9.55;1.92;;;;;;;25.96;33.89;98708.38;4951642;28;20211;-70
2021/01/15 08:14:42;;;;;;;9.50;1.65;;;;;;;26.07;32.82;98702.63;4951490;28;20210;-70
2021/01/15 08:17:11;;;;;;;6.95;2.10;;;;;;;25.96;32.39;98716.41;4949530;29;20226;-70
2021/01/15 08:19:38;;;;;;;8.85;1.60;;;;;;;26.03;32.44;98712.88;4952439;28;20227;-69
2021/01/15 08:22:07;;;;;;;3.45;1.50;;;;;;;26.02;32.75;98718.41;4951686;29;20297;-68
2021/01/15 08:24:43;;;;;;;7.65;1.98;;;;;;;26.12;32.37;98720.84;4951091;29;20678;-66
2021/01/15 08:27:15;;;;;;;8.80;1.60;;;;;;;26.19;32.87;98727.97;4951592;29;20206;-70
2021/01/15 08:29:42;;;;;;;19.08;1.50;;;;;;;26.19;32.91;98736.03;4951627;28;20223;-66
2021/01/15 08:32:09;;;;;;;4.90;1.60;;;;;;;26.26;31.94;98744.19;4951127;28;20203;-70
2021/01/15 08:34:37;;;;;;;3.70;1.40;;;;;;;26.32;31.88;98743.50;4951828;29;20282;-69
2021/01/15 08:37:04;;;;;;;7.32;1.55;;;;;;;26.35;32.01;98748.50;4952015;28;20293;-69
2021/01/15 08:39:42;;;;;;;4.50;1.60;;;;;;;26.28;32.54;98752.91;4953184;29;20223;-69
2021/01/15 08:42:09;;;;;;;3.05;1.70;;;;;;;26.25;32.38;98752.41;4951748;28;20559;-69
2021/01/15 08:44:35;;;;;;;3.75;1.50;;;;;;;26.21;32.31;98755.47;4959105;28;20238;-68
2021/01/15 08:47:03;;;;;;;3.58;1.33;;;;;;;26.16;32.38;98765.88;4956061;28;20234;-69
2021/01/15 08:49:30;;;;;;;3.97;1.60;;;;;;;26.21;31.86;98757.28;4952274;28;20219;-69
2021/01/15 08:51:59;;;;;;;3.83;1.55;;;;;;;26.06;31.75;98767.91;4951683;28;20282;-69
2021/01/15 08:54:27;;;;;;;10.63;2.50;;;;;;;25.98;31.35;98767.97;4959850;28;20278;-72
2021/01/15 08:56:54;;;;;;;9.93;2.20;;;;;;;25.84;31.34;98770.34;4971035;28;20449;-72
2021/01/15 08:59:26;;;;;;;3.88;1.65;;;;;;;25.67;32.35;98782.13;4956916;28;20227;-74
2021/01/15 09:01:53;;;;;;;7.13;1.92;;;;;;;25.60;33.14;98786.53;4952258;28;20207;-72
2021/01/15 09:04:23;;;;;;;3.65;1.30;;;;;;;25.63;33.85;98792.38;4951721;28;20575;-73
2021/01/15 09:06:53;;;;;;;8.45;1.48;;;;;;;25.66;33.53;98791.16;4951987;28;20207;-73
2021/01/15 09:09:21;;;;;;;5.88;1.50;;;;;;;25.74;34.03;98793.81;4951525;28;20617;-72
2021/01/15 09:11:49;;;;;;;4.75;1.65;;;;;;;25.82;34.20;98798.31;4951067;28;20647;-72
2021/01/15 09:14:19;;;;;;;6.20;2.47;;;;;;;25.74;29.25;98809.88;4951512;28;20291;-69
2021/01/15 09:16:47;;;;;;;5.03;2.90;;;;;;;25.68;27.47;98799.88;4952144;29;20345;-70
2021/01/15 09:19:14;;;;;;;6.70;3.80;;;;;;;25.47;25.77;98809.28;4955828;28;20404;-69
2021/01/15 09:21:49;;;;;;;6.63;3.97;;;;;;;25.22;24.11;98815.69;4960665;28;20214;-71
2021/01/15 09:24:17;;;;;;;8.63;3.90;;;;;;;24.99;24.93;98816.34;4956925;28;20274;-72
2021/01/15 09:26:44;;;;;;;6.20;3.60;;;;;;;24.84;24.78;98818.03;4965532;28;20199;-71
2021/01/15 09:29:11;;;;;;;6.28;3.28;;;;;;;24.96;26.11;98824.69;4971424;28;20222;-72
2021/01/15 09:31:38;;;;;;;12.13;3.28;;;;;;;25.13;27.13;98828.22;4955139;29;20210;-73
2021/01/15 09:34:05;;;;;;;6.53;2.70;;;;;;;25.16;28.29;98827.88;4954064;28;20207;-72
2021/01/15 09:36:31;;;;;;;6.70;2.45;;;;;;;25.21;28.45;98819.34;4953194;28;20273;-72
2021/01/15 09:38:58;;;;;;;3.97;2.00;;;;;;;25.41;28.77;98835.91;4952609;28;20679;-72
2021/01/15 09:41:26;;;;;;;8.43;1.98;;;;;;;25.60;29.41;98830.19;4953170;28;20623;-70
2021/01/15 09:43:53;;;;;;;5.80;2.10;;;;;;;25.59;29.36;98833.84;4954494;28;20282;-70
2021/01/15 09:46:24;;;;;;;3.90;1.55;;;;;;;25.55;29.92;98837.06;4953778;28;20289;-72
2021/01/15 09:48:52;;;;;;;4.75;1.95;;;;;;;25.58;30.08;98836.72;4953017;28;20226;-72
2021/01/15 09:51:23;;;;;;;4.68;1.70;;;;;;;25.61;31.04;98842.59;4955076;28;20277;-72
2021/01/15 09:53:50;;;;;;;9.32;2.17;;;;;;;25.61;30.49;98847.94;4955317;28;20257;-72
2021/01/15 09:56:24;;;;;;;6.15;1.98;;;;;;;25.61;31.19;98847.06;4952941;28;20267;-73
2021/01/15 09:58:51;;;;;;;2.20;1.58;;;;;;;25.50;32.48;98850.97;4953595;28;20241;-70
2021/01/15 10:01:18;;;;;;;8.00;1.90;;;;;;;25.61;31.70;98852.44;4953051;29;20218;-73
2021/01/15 10:03:44;;;;;;;10.43;1.88;;;;;;;25.62;31.99;98851.44;4954708;29;20225;-74
2021/01/15 10:06:13;;;;;;;6.43;1.60;;;;;;;25.70;32.02;98854.09;4953143;28;20226;-73
2021/01/15 10:08:40;;;;;;;4.70;1.52;;;;;;;25.75;33.11;98861.63;4952975;29;20578;-73
2021/01/15 10:11:06;;;;;;;9.90;2.17;;;;;;;25.83;32.69;98850.84;4952064;28;20607;-72
2021/01/15 10:13:32;;;;;;;4.22;1.75;;;;;;;25.76;32.92;98861.44;4953767;28;20257;-71
2021/01/15 10:16:06;;;;;;;7.40;2.00;;;;;;;25.83;32.97;98862.44;4954049;28;20222;-73
2021/01/15 10:18:32;;;;;;;3.88;1.70;;;;;;;25.80;33.05;98857.41;4954585;28;20630;-73
2021/01/15 10:20:58;;;;;;;3.42;1.70;;;;;;;25.84;33.51;98864.09;4952576;28;20241;-72
2021/01/15 10:23:25;;;;;;;3.50;1.70;;;;;;;25.81;33.01;98863.59;4953013;28;20221;-73
2021/01/15 10:25:51;;;;;;;4.43;1.85;;;;;;;25.72;32.74;98868.16;4952274;28;20206;-73
2021/01/15 10:28:17;;;;;;;12.80;1.73;;;;;;;25.69;33.79;98865.81;4952467;28;20221;-71
2021/01/15 10:30:46;;;;;;;10.50;1.85;;;;;;;25.54;33.33;98878.22;4953398;28;20234;-72
2021/01/15 10:33:13;;;;;;;4.43;1.73;;;;;;;25.61;32.43;98868.50;4953970;28;20607;-73
2021/01/15 10:35:40;;;;;;;6.90;1.75;;;;;;;25.53;32.69;98872.03;4953727;29;20627;-73
2021/01/15 10:38:06;;;;;;;5.00;1.90;;;;;;;25.46;33.35;98871.88;4952078;28;20289;-73
2021/01/15 10:40:33;;;;;;;5.10;1.83;;;;;;;25.43;33.90;98872.22;4967095;28;20546;-73
2021/01/15 10:42:59;;;;;;;7.70;1.65;;;;;;;25.29;34.11;98870.22;4957903;28;20285;-72
2021/01/15 10:45:26;;;;;;;4.03;1.75;;;;;;;25.28;34.20;98869.38;4957244;28;20307;-72
2021/01/15 10:47:52;;;;;;;3.47;1.60;;;;;;;25.30;34.00;98866.53;4952068;28;20198;-72
2021/01/15 10:50:19;;;;;;;2.72;1.55;;;;;;;25.33;33.42;98868.88;4952052;28;20329;-73
2021/01/15 10:52:55;;;;;;;2.45;1.52;;;;;;;25.45;33.45;98874.72;4950803;29;20672;-72
2021/01/15 10:55:21;;;;;;;4.57;1.60;;;;;;;25.48;33.64;98859.16;4952663;29;20261;-72
2021/01/15 10:57:48;;;;;;;5.80;1.38;;;;;;;25.48;32.77;98867.19;4952693;28;20312;-72
2021/01/15 11:00:15;;;;;;;7.00;2.03;;;;;;;25.55;33.65;98870.03;4953959;28;20234;-72
2021/01/15 11:02:42;;;;;;;4.13;1.27;;;;;;;25.58;33.60;98868.84;4951157;28;20595;-70
2021/01/15 11:05:09;;;;;;;2.55;1.58;;;;;;;25.57;32.03;98873.38;4949249;29;20571;-72
2021/01/15 11:07:36;;;;;;;4.72;1.42;;;;;;;25.65;33.09;98870.66;4951703;28;20266;-72
2021/01/15 11:10:04;;;;;;;5.82;1.75;;;;;;;25.64;33.26;98876.19;4952069;28;20226;-71
2021/01/15 11:12:30;;;;;;;3.15;1.60;;;;;;;25.62;32.75;98876.38;4953048;28;20199;-72
2021/01/15 11:14:56;;;;;;;4.28;1.48;;;;;;;25.57;33.99;98872.53;4951244;28;20267;-72
2021/01/15 11:17:22;;;;;;;2.30;1.30;;;;;;;25.64;32.89;98870.84;4949811;28;20321;-72
2021/01/15 11:19:50;;;;;;;5.95;1.67;;;;;;;25.72;33.57;98872.69;4950661;28;20227;-71
2021/01/15 11:22:16;;;;;;;2.63;1.38;;;;;;;25.69;33.01;98876.53;4947979;29;20203;-73
2021/01/15 11:24:43;;;;;;;2.17;1.48;;;;;;;25.72;33.32;98881.53;4951465;28;20253;-74
2021/01/15 11:27:09;;;;;;;8.27;2.38;;;;;;;25.68;33.77;98874.88;4951238;29;20203;-74
2021/01/15 11:29:35;;;;;;;4.03;1.50;;;;;;;25.73;34.17;98880.53;4952521;29;20560;-75
2021/01/15 11:32:02;;;;;;;5.05;1.70;;;;;;;25.81;33.72;98879.66;4952174;28;20245;-74
2021/01/15 11:34:28;;;;;;;5.70;1.60;;;;;;;25.89;33.89;98870.78;4951404;29;20211;-75
2021/01/15 11:36:54;;;;;;;5.03;1.55;;;;;;;26.00;33.94;98873.97;4951568;28;20230;-71
2021/01/15 11:39:21;;;;;;;3.00;1.45;;;;;;;26.00;33.38;98878.50;4951489;29;20663;-73